Time;durP1;ratioP1;P1;durP2;ratioP2;P2;SDS_P1;SDS_P2;PMS_P1;PMS_P2;Temp;Humidity;BMP_temperature;BMP_pressure;BME280_temperature;BME280_humidity;BME280_pressure;Samples;Min_cycle;Max_cycle;Signal;HPM_P1;HPM_P2
2022/03/03 00:00:22;;;;;;;38.58;21.63;;;4.90;99.90;;;;;;5048913;28;20450;-76
2022/03/03 00:02:48;;;;;;;35.60;20.40;;;4.80;99.90;;;;;;5042975;28;20029;-76
2022/03/03 00:05:14;;;;;;;36.88;19.23;;;4.70;99.90;;;;;;5030544;28;20033;-76
2022/03/03 00:07:40;;;;;;;33.92;19.63;;;4.60;99.90;;;;;;5043702;28;20447;-77
2022/03/03 00:10:08;;;;;;;32.38;19.83;;;4.70;99.90;;;;;;5037411;28;20025;-76
2022/03/03 00:12:34;;;;;;;30.85;19.13;;;4.70;99.90;;;;;;5040896;28;20036;-76
2022/03/03 00:15:01;;;;;;;33.45;19.05;;;4.70;99.90;;;;;;5037972;28;20018;-76
2022/03/03 00:17:27;;;;;;;32.13;19.85;;;4.70;99.90;;;;;;5042005;28;20070;-76
2022/03/03 00:19:54;;;;;;;37.65;19.95;;;4.80;99.90;;;;;;5034240;28;20116;-81
2022/03/03 00:22:19;;;;;;;36.85;21.40;;;4.80;99.90;;;;;;5047436;28;20025;-76
2022/03/03 00:24:45;;;;;;;38.65;20.63;;;4.80;99.90;;;;;;5037090;28;20044;-77
2022/03/03 00:27:11;;;;;;;33.67;20.42;;;4.70;99.90;;;;;;5042030;28;20063;-77
2022/03/03 00:29:37;;;;;;;35.70;20.63;;;4.80;99.90;;;;;;5037320;28;20022;-77
2022/03/03 00:32:03;;;;;;;36.10;20.65;;;4.70;99.90;;;;;;5047997;28;20501;-77
2022/03/03 00:34:28;;;;;;;31.67;18.40;;;4.70;99.90;;;;;;5041381;28;20493;-77
2022/03/03 00:36:54;;;;;;;32.50;20.70;;;4.70;99.90;;;;;;5041368;28;20017;-76
2022/03/03 00:39:20;;;;;;;32.72;19.83;;;4.70;99.90;;;;;;5036315;28;20052;-77
2022/03/03 00:41:45;;;;;;;34.50;21.17;;;4.70;99.90;;;;;;5045358;28;20028;-77
2022/03/03 00:44:11;;;;;;;35.25;20.92;;;4.70;99.90;;;;;;5038779;28;20134;-77
2022/03/03 00:46:37;;;;;;;31.08;18.70;;;4.70;99.90;;;;;;5049355;28;20025;-76
2022/03/03 00:49:03;;;;;;;33.28;19.05;;;4.70;99.90;;;;;;5041930;28;20128;-76
2022/03/03 00:51:30;;;;;;;30.33;19.42;;;4.70;99.90;;;;;;5033952;28;20100;-76
2022/03/03 00:53:56;;;;;;;33.90;19.42;;;4.60;99.90;;;;;;5038626;28;20030;-76
2022/03/03 00:56:21;;;;;;;35.38;20.45;;;4.60;99.90;;;;;;5048646;28;20087;-76
2022/03/03 00:58:47;;;;;;;33.20;19.35;;;4.60;99.90;;;;;;5044024;28;20041;-76
2022/03/03 01:01:13;;;;;;;39.25;21.90;;;4.60;99.90;;;;;;5024525;28;20053;-76
2022/03/03 01:03:39;;;;;;;35.10;21.83;;;4.60;99.90;;;;;;5041900;28;20017;-76
2022/03/03 01:06:05;;;;;;;35.10;21.40;;;4.60;99.90;;;;;;5039454;28;20430;-77
2022/03/03 01:08:31;;;;;;;37.90;22.58;;;4.50;99.90;;;;;;5041657;28;20032;-76
2022/03/03 01:10:57;;;;;;;36.42;21.45;;;4.50;99.90;;;;;;5032283;28;20025;-76
2022/03/03 01:13:23;;;;;;;35.40;21.25;;;4.50;99.90;;;;;;5041961;28;20038;-76
2022/03/03 01:15:49;;;;;;;34.92;19.83;;;4.40;99.90;;;;;;5043922;28;20066;-76
2022/03/03 01:18:16;;;;;;;31.33;19.52;;;4.40;99.90;;;;;;5036617;28;20064;-76
2022/03/03 01:20:42;;;;;;;43.17;21.67;;;4.40;99.90;;;;;;5039778;28;20158;-76
2022/03/03 01:23:07;;;;;;;41.72;22.33;;;4.40;99.90;;;;;;5041505;28;20092;-76
2022/03/03 01:25:33;;;;;;;37.65;23.83;;;4.30;99.90;;;;;;5047344;28;20030;-76
2022/03/03 01:27:59;;;;;;;36.90;23.13;;;4.40;99.90;;;;;;5038953;28;20056;-76
2022/03/03 01:30:25;;;;;;;39.08;21.67;;;4.30;99.90;;;;;;5040949;28;20021;-76
2022/03/03 01:32:51;;;;;;;39.17;21.70;;;4.30;99.90;;;;;;5033496;28;20029;-78
2022/03/03 01:35:17;;;;;;;34.08;21.05;;;4.30;99.90;;;;;;5041752;28;20059;-76
2022/03/03 01:37:43;;;;;;;34.38;21.00;;;4.20;99.90;;;;;;5045458;28;20052;-76
2022/03/03 01:40:10;;;;;;;36.85;20.20;;;4.20;99.90;;;;;;5041883;28;20385;-76
2022/03/03 01:42:36;;;;;;;35.80;21.10;;;4.20;99.90;;;;;;5036730;28;20422;-77
2022/03/03 01:45:03;;;;;;;35.00;20.48;;;4.20;99.90;;;;;;5043416;28;20056;-76
2022/03/03 01:47:29;;;;;;;31.75;20.20;;;4.20;99.90;;;;;;5050677;28;20123;-76
2022/03/03 01:49:57;;;;;;;38.13;21.40;;;4.20;99.90;;;;;;5043547;28;20052;-76
2022/03/03 01:52:23;;;;;;;37.20;20.17;;;4.10;99.90;;;;;;5034758;28;20029;-76
2022/03/03 01:54:49;;;;;;;38.80;21.88;;;4.20;99.90;;;;;;5038981;28;20029;-76
2022/03/03 01:57:17;;;;;;;37.22;19.83;;;4.20;99.90;;;;;;5044428;28;20026;-76
2022/03/03 01:59:43;;;;;;;37.45;22.98;;;4.10;99.90;;;;;;5038605;28;20060;-76
2022/03/03 02:02:13;;;;;;;38.67;21.90;;;4.00;99.90;;;;;;5035911;28;20117;-76
2022/03/03 02:04:40;;;;;;;40.47;23.58;;;4.00;99.90;;;;;;5050988;28;20056;-76
2022/03/03 02:07:06;;;;;;;34.83;22.23;;;3.90;99.90;;;;;;5029242;28;20421;-76
2022/03/03 02:09:33;;;;;;;38.15;23.08;;;3.80;99.90;;;;;;5033678;28;20022;-76
2022/03/03 02:11:59;;;;;;;38.85;21.35;;;3.70;99.90;;;;;;5033014;28;20060;-76
2022/03/03 02:14:25;;;;;;;35.58;21.00;;;3.60;99.90;;;;;;5040912;28;20076;-76
2022/03/03 02:16:51;;;;;;;35.90;20.83;;;3.60;99.90;;;;;;5029695;28;20030;-76
2022/03/03 02:19:20;;;;;;;35.35;21.13;;;3.60;99.90;;;;;;5023743;28;20041;-76
2022/03/03 02:21:51;;;;;;;38.08;21.00;;;3.60;99.90;;;;;;5030325;28;20022;-76
2022/03/03 02:24:20;;;;;;;36.85;20.20;;;3.60;99.90;;;;;;5033399;28;20049;-76
2022/03/03 02:26:47;;;;;;;38.50;20.92;;;3.60;99.90;;;;;;5037984;28;20069;-76
2022/03/03 02:29:13;;;;;;;38.78;21.40;;;3.70;99.90;;;;;;5025715;28;20466;-76
2022/03/03 02:31:40;;;;;;;40.85;23.65;;;3.60;99.90;;;;;;5031008;28;20079;-76
2022/03/03 02:34:06;;;;;;;40.15;22.23;;;3.70;99.90;;;;;;5029639;28;20033;-77
2022/03/03 02:36:32;;;;;;;39.58;22.67;;;3.70;99.90;;;;;;5041770;28;20028;-76
2022/03/03 02:39:00;;;;;;;37.90;22.80;;;3.60;99.90;;;;;;5044148;28;20041;-76
2022/03/03 02:41:27;;;;;;;33.72;20.08;;;3.60;99.90;;;;;;5031125;28;20108;-76
2022/03/03 02:43:54;;;;;;;38.78;20.63;;;3.70;99.90;;;;;;5036697;28;20072;-76
2022/03/03 02:46:20;;;;;;;35.25;20.58;;;3.60;99.90;;;;;;5040644;28;20029;-77
2022/03/03 02:48:46;;;;;;;35.88;20.75;;;3.60;99.90;;;;;;5041077;28;20535;-76
2022/03/03 02:51:12;;;;;;;36.72;20.20;;;3.60;99.90;;;;;;5041645;28;20104;-76
2022/03/03 02:53:38;;;;;;;40.75;22.20;;;3.60;99.90;;;;;;5039112;28;20498;-76
2022/03/03 02:56:05;;;;;;;36.47;21.08;;;3.50;99.90;;;;;;5043280;28;20013;-76
2022/03/03 02:58:30;;;;;;;37.50;20.92;;;3.50;99.90;;;;;;5043679;28;20033;-76
2022/03/03 03:00:57;;;;;;;36.10;20.73;;;3.60;99.90;;;;;;5045875;28;20466;-76
2022/03/03 03:03:24;;;;;;;49.83;25.13;;;3.60;99.90;;;;;;5033843;28;20116;-76
2022/03/03 03:05:49;;;;;;;40.40;23.70;;;3.50;99.90;;;;;;5037843;28;20035;-76
2022/03/03 03:08:15;;;;;;;39.38;23.98;;;3.50;99.90;;;;;;5044867;28;20026;-76
2022/03/03 03:10:42;;;;;;;39.78;23.40;;;3.50;99.90;;;;;;5035129;28;20048;-76
2022/03/03 03:13:08;;;;;;;41.65;23.80;;;3.50;99.90;;;;;;5034876;28;20131;-76
2022/03/03 03:15:35;;;;;;;43.55;22.15;;;3.40;99.90;;;;;;5035954;28;20029;-76
2022/03/03 03:18:18;;;;;;;38.22;21.52;;;3.40;99.90;;;;;;5042854;28;20025;-76
2022/03/03 03:20:47;;;;;;;40.03;21.50;;;3.30;99.90;;;;;;5039457;28;20029;-76
2022/03/03 03:23:16;;;;;;;41.05;23.20;;;3.20;99.90;;;;;;5035629;28;20087;-76
2022/03/03 03:25:43;;;;;;;40.95;22.52;;;3.20;99.90;;;;;;5044398;28;20025;-76
2022/03/03 03:28:13;;;;;;;36.30;20.33;;;3.20;99.90;;;;;;5046054;28;20029;-76
2022/03/03 03:30:40;;;;;;;37.53;21.58;;;3.10;99.90;;;;;;5041528;28;20026;-76
2022/03/03 03:33:06;;;;;;;35.13;19.80;;;3.10;99.90;;;;;;5034673;28;20036;-76
2022/03/03 03:35:31;;;;;;;38.45;22.70;;;3.10;99.90;;;;;;5044606;28;20021;-75
2022/03/03 03:37:57;;;;;;;40.05;21.70;;;3.10;99.90;;;;;;5040752;28;20030;-75
2022/03/03 03:40:23;;;;;;;35.42;20.02;;;3.10;99.90;;;;;;5028318;28;20056;-75
2022/03/03 03:42:49;;;;;;;35.28;19.65;;;3.10;99.90;;;;;;5029269;28;20072;-75
2022/03/03 03:45:15;;;;;;;38.22;21.63;;;3.10;99.90;;;;;;5041904;28;20026;-76
2022/03/03 03:47:41;;;;;;;37.78;21.02;;;3.10;99.90;;;;;;5047802;28;20034;-75
2022/03/03 03:50:09;;;;;;;40.53;22.52;;;3.10;99.90;;;;;;5034824;28;20037;-76
2022/03/03 03:52:36;;;;;;;36.45;21.60;;;3.10;99.90;;;;;;5028900;28;20036;-76
2022/03/03 03:55:03;;;;;;;37.78;21.55;;;3.10;99.90;;;;;;5027187;28;20022;-76
2022/03/03 03:57:29;;;;;;;39.28;21.55;;;3.10;99.90;;;;;;5039559;28;20028;-75
2022/03/03 03:59:55;;;;;;;35.63;21.63;;;3.20;99.90;;;;;;5031179;28;20029;-77
2022/03/03 04:02:20;;;;;;;39.03;22.90;;;3.20;99.90;;;;;;5030323;28;20096;-76
2022/03/03 04:04:46;;;;;;;35.75;20.80;;;3.10;99.90;;;;;;5041868;28;20048;-77
2022/03/03 04:07:12;;;;;;;40.20;22.67;;;3.10;99.90;;;;;;5034199;28;20032;-75
2022/03/03 04:09:37;;;;;;;37.30;22.27;;;3.10;99.90;;;;;;5031728;28;20036;-76
2022/03/03 04:12:03;;;;;;;37.60;20.98;;;3.20;99.90;;;;;;5033455;28;20029;-77
2022/03/03 04:14:29;;;;;;;41.88;23.05;;;3.10;99.90;;;;;;5031683;28;20026;-77
2022/03/03 04:16:54;;;;;;;40.47;21.85;;;3.10;99.90;;;;;;5051974;28;20064;-75
2022/03/03 04:19:20;;;;;;;35.38;21.00;;;3.10;99.90;;;;;;5037828;28;20499;-77
2022/03/03 04:21:46;;;;;;;36.47;20.13;;;3.00;99.90;;;;;;5038934;28;20029;-75
2022/03/03 04:24:12;;;;;;;37.65;21.17;;;3.00;99.90;;;;;;5035840;28;20486;-76
2022/03/03 04:26:37;;;;;;;37.17;22.70;;;3.00;99.90;;;;;;5044108;28;20030;-77
2022/03/03 04:29:04;;;;;;;39.00;22.38;;;3.00;99.90;;;;;;5036595;28;20026;-75
2022/03/03 04:31:30;;;;;;;42.42;22.50;;;2.90;99.90;;;;;;5035806;28;20029;-75
2022/03/03 04:33:56;;;;;;;39.95;23.90;;;2.90;99.90;;;;;;5040021;28;20036;-75
2022/03/03 04:36:23;;;;;;;42.55;24.63;;;2.90;99.90;;;;;;5038641;28;20087;-75
2022/03/03 04:38:50;;;;;;;39.10;23.67;;;2.90;99.90;;;;;;5048990;28;20493;-76
2022/03/03 04:41:17;;;;;;;40.17;25.88;;;2.80;99.90;;;;;;5038506;28;20074;-75
2022/03/03 04:43:42;;;;;;;39.70;24.48;;;2.80;99.90;;;;;;5038673;28;20031;-75
2022/03/03 04:46:08;;;;;;;41.22;22.95;;;2.80;99.90;;;;;;5038183;28;20482;-77
2022/03/03 04:48:34;;;;;;;44.83;23.42;;;2.80;99.90;;;;;;5048752;28;20033;-75
2022/03/03 04:51:01;;;;;;;40.70;22.45;;;2.70;99.90;;;;;;5027423;28;20120;-76
2022/03/03 04:53:27;;;;;;;36.17;22.75;;;2.70;99.90;;;;;;5036555;28;20038;-76
2022/03/03 04:55:54;;;;;;;35.95;21.63;;;2.60;99.90;;;;;;5042359;28;20025;-75
2022/03/03 04:58:20;;;;;;;42.83;22.98;;;2.60;99.90;;;;;;5040717;28;20065;-75
2022/03/03 05:00:46;;;;;;;43.35;22.83;;;2.70;99.90;;;;;;5048918;28;20118;-78
2022/03/03 05:03:11;;;;;;;43.15;23.15;;;2.60;99.90;;;;;;5041032;28;20427;-75
2022/03/03 05:05:37;;;;;;;41.22;22.63;;;2.50;99.90;;;;;;5039279;28;20033;-76
2022/03/03 05:08:02;;;;;;;46.78;24.52;;;2.60;99.90;;;;;;5046620;28;20029;-77
2022/03/03 05:10:28;;;;;;;45.80;24.33;;;2.60;99.90;;;;;;5048565;28;20119;-76
2022/03/03 05:12:54;;;;;;;43.10;23.73;;;2.60;99.90;;;;;;5044952;28;20017;-75
2022/03/03 05:15:20;;;;;;;41.42;23.83;;;2.60;99.90;;;;;;5040190;28;20033;-75
2022/03/03 05:17:45;;;;;;;41.08;23.67;;;2.60;99.90;;;;;;5048187;28;20366;-76
2022/03/03 05:20:12;;;;;;;36.70;22.23;;;2.60;99.90;;;;;;5039013;28;20038;-75
2022/03/03 05:22:41;;;;;;;45.78;23.52;;;2.60;99.90;;;;;;5043680;28;20021;-76
2022/03/03 05:25:07;;;;;;;39.85;23.63;;;2.70;99.90;;;;;;5043720;28;20446;-77
2022/03/03 05:27:33;;;;;;;39.40;22.13;;;2.70;99.90;;;;;;5050250;28;20053;-75
2022/03/03 05:29:59;;;;;;;39.28;22.38;;;2.70;99.90;;;;;;5045577;28;20083;-75
2022/03/03 05:32:25;;;;;;;39.33;22.88;;;2.60;99.90;;;;;;5037580;28;20034;-75
2022/03/03 05:34:51;;;;;;;42.47;22.70;;;2.60;99.90;;;;;;5040984;28;20026;-75
2022/03/03 05:37:22;;;;;;;44.80;22.55;;;2.60;99.90;;;;;;5049808;28;20021;-75
2022/03/03 05:39:48;;;;;;;49.30;21.80;;;2.60;99.90;;;;;;5041303;28;20029;-76
2022/03/03 05:42:14;;;;;;;37.20;20.55;;;2.60;99.90;;;;;;5034756;28;20036;-76
2022/03/03 05:44:42;;;;;;;40.75;21.83;;;2.60;99.90;;;;;;5039268;28;20063;-75
2022/03/03 05:47:07;;;;;;;39.60;21.20;;;2.50;99.90;;;;;;5045699;28;20029;-76
2022/03/03 05:49:33;;;;;;;39.28;22.90;;;2.50;99.90;;;;;;5045507;28;20406;-75
2022/03/03 05:51:59;;;;;;;36.28;23.58;;;2.50;99.90;;;;;;5029109;28;20029;-75
2022/03/03 05:54:25;;;;;;;40.50;22.20;;;2.50;99.90;;;;;;5030714;28;20029;-75
2022/03/03 05:56:54;;;;;;;37.10;22.98;;;2.50;99.90;;;;;;5048285;28;20021;-75
2022/03/03 05:59:22;;;;;;;38.83;21.48;;;2.50;99.90;;;;;;5030661;28;20030;-75
2022/03/03 06:01:49;;;;;;;35.65;20.98;;;2.40;99.90;;;;;;5035855;28;20022;-75
2022/03/03 06:04:15;;;;;;;39.75;21.42;;;2.40;99.90;;;;;;5035467;28;20036;-75
2022/03/03 06:07:01;;;;;;;41.55;22.00;;;2.40;99.90;;;;;;5053865;28;20107;-74
2022/03/03 06:09:31;;;;;;;36.65;20.75;;;2.40;99.90;;;;;;5028367;28;20121;-76
2022/03/03 06:12:06;;;;;;;34.85;19.92;;;2.40;99.90;;;;;;5034366;28;20022;-78
2022/03/03 06:15:02;;;;;;;39.22;22.42;;;2.40;99.90;;;;;;5033064;28;20534;-76
2022/03/03 06:17:28;;;;;;;41.33;21.13;;;2.40;99.90;;;;;;5042014;28;20127;-75
2022/03/03 06:19:54;;;;;;;40.55;20.30;;;2.40;99.90;;;;;;5026251;28;20402;-76
2022/03/03 06:22:20;;;;;;;38.42;20.52;;;2.40;99.90;;;;;;5040317;28;20013;-77
2022/03/03 06:24:47;;;;;;;37.88;20.10;;;2.40;99.90;;;;;;5030706;28;20029;-77
2022/03/03 06:27:13;;;;;;;41.53;24.10;;;2.40;99.90;;;;;;5037808;28;20488;-76
2022/03/03 06:29:39;;;;;;;42.05;24.52;;;2.40;99.90;;;;;;5035288;28;20026;-76
2022/03/03 06:32:06;;;;;;;41.42;24.55;;;2.30;99.90;;;;;;5033571;28;20022;-76
2022/03/03 06:34:31;;;;;;;42.97;22.85;;;2.30;99.90;;;;;;5040830;28;20042;-81
2022/03/03 06:36:57;;;;;;;39.28;22.08;;;2.30;99.90;;;;;;5038505;28;20021;-75
2022/03/03 06:39:23;;;;;;;35.90;21.30;;;2.40;99.90;;;;;;5034167;28;20078;-75
2022/03/03 06:41:50;;;;;;;45.65;22.83;;;2.30;99.90;;;;;;5028122;28;20049;-76
2022/03/03 06:44:15;;;;;;;40.72;21.55;;;2.40;99.90;;;;;;5023082;28;20541;-75
2022/03/03 06:46:42;;;;;;;38.03;20.55;;;2.30;99.90;;;;;;5034444;28;20022;-76
2022/03/03 06:49:07;;;;;;;36.15;20.75;;;2.30;99.90;;;;;;5029103;28;20087;-77
2022/03/03 06:51:43;;;;;;;42.97;23.40;;;2.20;99.90;;;;;;5038505;28;20033;-75
2022/03/03 06:54:14;;;;;;;41.60;22.27;;;2.30;99.90;;;;;;5028210;28;20052;-75
2022/03/03 06:56:58;;;;;;;43.95;23.15;;;2.30;99.90;;;;;;5035211;28;20013;-75
2022/03/03 06:59:26;;;;;;;40.95;20.42;;;2.10;99.90;;;;;;5040445;28;20020;-75
2022/03/03 07:01:54;;;;;;;37.10;19.95;;;2.10;99.90;;;;;;5030111;28;20025;-75
2022/03/03 07:04:21;;;;;;;39.00;21.33;;;2.20;99.90;;;;;;5036291;28;20108;-75
2022/03/03 07:06:48;;;;;;;39.90;21.98;;;2.20;99.90;;;;;;5028722;28;20034;-75
2022/03/03 07:09:14;;;;;;;38.83;21.05;;;2.20;99.90;;;;;;5043458;28;20021;-75
2022/03/03 07:11:42;;;;;;;39.28;21.23;;;2.20;99.90;;;;;;5028799;28;20026;-77
2022/03/03 07:14:08;;;;;;;36.25;20.95;;;2.20;99.90;;;;;;5037272;28;20029;-76
2022/03/03 07:16:45;;;;;;;37.92;20.98;;;2.20;99.90;;;;;;5026802;28;20033;-77
2022/03/03 07:19:25;;;;;;;38.08;21.20;;;2.20;99.90;;;;;;5032226;28;20386;-76
2022/03/03 07:22:10;;;;;;;38.67;20.90;;;2.20;99.90;;;;;;5043260;28;20025;-75
2022/03/03 07:24:47;;;;;;;39.78;20.27;;;2.20;99.90;;;;;;5025658;28;20030;-76
2022/03/03 07:27:23;;;;;;;37.78;20.05;;;2.20;99.90;;;;;;5023517;28;20083;-76
2022/03/03 07:29:56;;;;;;;39.95;21.83;;;2.20;99.90;;;;;;5035890;28;20026;-76
2022/03/03 07:32:45;;;;;;;39.80;21.13;;;2.20;99.90;;;;;;5031055;28;20025;-76
2022/03/03 07:35:14;;;;;;;39.83;21.27;;;2.20;99.90;;;;;;5039318;28;20096;-77
2022/03/03 07:37:56;;;;;;;40.85;22.55;;;2.20;99.90;;;;;;5033676;28;20021;-76
2022/03/03 07:40:26;;;;;;;40.00;22.17;;;2.20;99.90;;;;;;5031165;28;20403;-77
2022/03/03 07:42:54;;;;;;;42.22;21.40;;;2.30;99.90;;;;;;5037659;28;20024;-77
2022/03/03 07:45:20;;;;;;;39.83;21.02;;;2.30;99.90;;;;;;5037428;28;20022;-74
2022/03/03 07:47:49;;;;;;;42.22;21.98;;;2.40;99.90;;;;;;5042087;28;20036;-75
2022/03/03 07:50:14;;;;;;;38.83;21.80;;;2.40;99.90;;;;;;5021529;28;20080;-76
2022/03/03 07:52:43;;;;;;;41.13;23.00;;;2.40;99.90;;;;;;5041927;28;20033;-76
2022/03/03 07:55:10;;;;;;;46.35;22.70;;;2.40;99.90;;;;;;5048188;28;20066;-76
2022/03/03 07:57:40;;;;;;;40.53;23.55;;;2.50;99.90;;;;;;5028011;28;20018;-77
2022/03/03 08:00:15;;;;;;;36.70;21.70;;;2.50;99.90;;;;;;5033899;28;20025;-78
2022/03/03 08:02:43;;;;;;;35.13;22.02;;;2.50;99.90;;;;;;5028261;28;20131;-78
2022/03/03 08:05:10;;;;;;;38.53;21.45;;;2.60;99.90;;;;;;5037801;28;20066;-78
2022/03/03 08:07:44;;;;;;;35.40;21.63;;;2.70;99.90;;;;;;5035278;28;20381;-78
2022/03/03 08:10:12;;;;;;;37.00;22.02;;;2.90;99.90;;;;;;5023399;28;20032;-78
2022/03/03 08:12:39;;;;;;;39.17;20.92;;;3.00;99.90;;;;;;5035485;28;20038;-78
2022/03/03 08:15:06;;;;;;;38.65;19.95;;;3.10;99.90;;;;;;5036846;28;20561;-78
2022/03/03 08:17:34;;;;;;;35.63;19.58;;;3.20;99.90;;;;;;5033529;28;20417;-78
2022/03/03 08:20:03;;;;;;;34.72;19.60;;;3.40;99.90;;;;;;5036760;28;20430;-80
2022/03/03 08:22:30;;;;;;;33.40;20.13;;;3.60;99.90;;;;;;5033106;28;20478;-79
2022/03/03 08:24:57;;;;;;;38.80;20.20;;;3.80;99.90;;;;;;5020963;28;20084;-79
2022/03/03 08:27:25;;;;;;;40.63;20.40;;;3.90;99.90;;;;;;5037861;28;20024;-79
2022/03/03 08:29:51;;;;;;;34.28;19.42;;;4.10;99.90;;;;;;5024801;28;20048;-78
2022/03/03 08:32:19;;;;;;;33.70;18.83;;;4.20;99.90;;;;;;5042362;28;20410;-79
2022/03/03 08:34:57;;;;;;;41.60;18.77;;;4.20;99.90;;;;;;5028153;28;20025;-79
2022/03/03 08:37:36;;;;;;;29.92;17.92;;;4.30;99.90;;;;;;5036495;28;20030;-79
2022/03/03 08:40:02;;;;;;;36.30;18.13;;;4.40;99.90;;;;;;5023807;28;20117;-80
2022/03/03 08:42:36;;;;;;;36.40;17.90;;;4.50;99.90;;;;;;5038129;28;20057;-80
2022/03/03 08:45:06;;;;;;;31.98;18.63;;;4.60;99.90;;;;;;5024530;28;20466;-80
2022/03/03 08:47:32;;;;;;;32.28;17.35;;;4.80;99.90;;;;;;5033181;28;20377;-81
2022/03/03 08:50:02;;;;;;;29.98;17.30;;;5.10;99.90;;;;;;5029888;28;20092;-80
2022/03/03 08:52:28;;;;;;;27.88;16.88;;;5.10;99.90;;;;;;5029350;28;20030;-80
2022/03/03 08:54:55;;;;;;;30.52;17.13;;;5.20;99.90;;;;;;5029449;28;20025;-81
2022/03/03 08:57:21;;;;;;;26.42;15.45;;;5.20;99.90;;;;;;5029977;28;20420;-81
2022/03/03 08:59:47;;;;;;;26.38;15.40;;;5.30;99.90;;;;;;5034138;28;20018;-82
2022/03/03 09:02:20;;;;;;;29.88;16.75;;;5.40;99.90;;;;;;5040327;28;20108;-83
2022/03/03 09:04:46;;;;;;;28.98;17.20;;;5.60;99.90;;;;;;5044897;28;20104;-82
2022/03/03 09:07:13;;;;;;;30.98;16.27;;;5.80;99.90;;;;;;5027607;28;20030;-80
2022/03/03 09:09:39;;;;;;;31.40;17.55;;;6.00;99.90;;;;;;5026869;28;20032;-80
2022/03/03 09:12:06;;;;;;;26.98;18.30;;;6.10;99.90;;;;;;5032477;28;20032;-81
2022/03/03 09:14:31;;;;;;;31.23;19.33;;;6.10;99.90;;;;;;5024586;28;20091;-81
2022/03/03 09:16:57;;;;;;;29.05;17.92;;;6.30;99.90;;;;;;5034739;28;20025;-80
2022/03/03 09:19:23;;;;;;;32.17;17.13;;;6.60;99.90;;;;;;5021594;28;20036;-81
2022/03/03 09:21:49;;;;;;;30.00;17.02;;;6.60;99.90;;;;;;5039161;28;20493;-81
2022/03/03 09:24:15;;;;;;;32.55;17.40;;;6.70;99.90;;;;;;5036480;28;20112;-80
2022/03/03 09:26:41;;;;;;;25.65;16.60;;;6.70;99.90;;;;;;5025144;28;20113;-81
2022/03/03 09:29:06;;;;;;;31.33;16.42;;;6.90;99.90;;;;;;5038497;28;20087;-81
2022/03/03 09:31:32;;;;;;;27.35;17.40;;;6.90;99.90;;;;;;5045234;28;20482;-80
2022/03/03 09:33:58;;;;;;;30.20;16.55;;;7.10;99.90;;;;;;5023559;28;20044;-79
2022/03/03 09:36:24;;;;;;;26.10;15.45;;;7.30;99.90;;;;;;5032427;28;20036;-80
2022/03/03 09:38:50;;;;;;;30.58;17.00;;;7.30;99.90;;;;;;5028905;28;20112;-80
2022/03/03 09:41:15;;;;;;;26.20;16.08;;;7.50;99.90;;;;;;5029817;28;20022;-80
2022/03/03 09:43:44;;;;;;;30.08;16.05;;;7.60;99.90;;;;;;5026492;28;20072;-79
2022/03/03 09:46:11;;;;;;;29.98;15.65;;;7.60;99.90;;;;;;5036735;28;20504;-80
2022/03/03 09:48:37;;;;;;;32.40;16.40;;;7.80;99.90;;;;;;5021700;28;20120;-80
2022/03/03 09:51:03;;;;;;;30.75;16.70;;;7.90;99.90;;;;;;5040122;28;20051;-80
2022/03/03 09:53:29;;;;;;;27.10;17.00;;;8.00;99.90;;;;;;5029418;28;20402;-80
2022/03/03 09:55:55;;;;;;;25.55;16.73;;;8.10;99.60;;;;;;5040402;28;20111;-79
2022/03/03 09:58:21;;;;;;;26.55;17.02;;;8.30;98.90;;;;;;5041010;28;20422;-79
2022/03/03 10:00:47;;;;;;;40.60;16.67;;;8.30;99.90;;;;;;5033241;28;20024;-80
2022/03/03 10:03:16;;;;;;;27.17;16.40;;;8.30;98.20;;;;;;5037215;28;20033;-79
2022/03/03 10:05:47;;;;;;;26.50;15.82;;;8.40;99.10;;;;;;5031602;28;20021;-80
2022/03/03 10:08:17;;;;;;;26.48;15.02;;;8.50;98.00;;;;;;5038878;28;20033;-80
2022/03/03 10:10:48;;;;;;;25.77;15.00;;;8.80;99.50;;;;;;5028817;28;20030;-80
2022/03/03 10:13:16;;;;;;;23.52;13.85;;;8.90;99.90;;;;;;5037633;28;20041;-79
2022/03/03 10:15:49;;;;;;;29.08;15.48;;;9.00;99.10;;;;;;5025102;28;20527;-79
2022/03/03 10:18:16;;;;;;;26.33;14.88;;;8.90;96.90;;;;;;5040477;28;20040;-80
2022/03/03 10:20:54;;;;;;;28.25;15.55;;;8.90;99.20;;;;;;5051293;28;20029;-80
2022/03/03 10:23:24;;;;;;;27.85;15.85;;;9.00;99.20;;;;;;5036116;28;20025;-80
2022/03/03 10:25:52;;;;;;;24.05;16.33;;;9.20;96.30;;;;;;5030950;28;20014;-79
2022/03/03 10:28:30;;;;;;;23.95;15.00;;;9.30;97.00;;;;;;5039423;28;20036;-80
2022/03/03 10:31:13;;;;;;;24.63;14.85;;;9.30;97.30;;;;;;5035516;28;20466;-82
2022/03/03 10:33:45;;;;;;;27.45;15.45;;;9.40;96.50;;;;;;5036319;28;20136;-83
2022/03/03 10:36:15;;;;;;;23.58;16.63;;;9.50;98.50;;;;;;5028233;28;20025;-84
2022/03/03 10:38:59;;;;;;;23.02;14.88;;;9.70;97.00;;;;;;5040649;28;20037;-84
2022/03/03 10:41:33;;;;;;;24.52;15.55;;;9.70;97.90;;;;;;5031309;28;20024;-83
2022/03/03 10:44:03;;;;;;;22.45;14.40;;;9.90;96.00;;;;;;5041991;28;20416;-83
2022/03/03 10:46:30;;;;;;;27.42;16.52;;;10.00;95.80;;;;;;5026845;28;20041;-84
2022/03/03 10:48:56;;;;;;;26.50;16.50;;;10.00;96.10;;;;;;5036353;28;20018;-86
2022/03/03 10:51:25;;;;;;;30.67;16.75;;;10.20;98.60;;;;;;5036334;28;20417;-85
2022/03/03 10:53:58;;;;;;;22.55;14.73;;;10.20;95.50;;;;;;5029532;28;20041;-80
2022/03/03 10:56:23;;;;;;;20.95;12.80;;;10.30;94.40;;;;;;5032172;28;20014;-78
2022/03/03 10:58:55;;;;;;;21.55;12.98;;;10.30;93.90;;;;;;5035940;28;20102;-79
2022/03/03 11:01:27;;;;;;;20.60;14.45;;;10.40;95.70;;;;;;5035770;28;20021;-79
2022/03/03 11:03:54;;;;;;;26.55;15.32;;;10.40;93.80;;;;;;5040584;28;20025;-78
2022/03/03 11:06:22;;;;;;;23.60;13.75;;;10.40;93.80;;;;;;5023002;28;20441;-78
2022/03/03 11:08:49;;;;;;;24.15;13.98;;;10.50;93.10;;;;;;5040280;28;20169;-77
2022/03/03 11:11:15;;;;;;;19.23;14.43;;;10.60;94.50;;;;;;5041318;28;20056;-77
2022/03/03 11:13:43;;;;;;;22.77;13.32;;;10.60;92.00;;;;;;5035610;28;20099;-76
2022/03/03 11:16:09;;;;;;;20.65;14.45;;;10.70;93.30;;;;;;5028282;28;20072;-78
2022/03/03 11:18:34;;;;;;;22.88;14.43;;;10.80;92.20;;;;;;5036400;28;20513;-78
2022/03/03 11:21:01;;;;;;;20.38;13.02;;;11.00;95.20;;;;;;5042824;28;20025;-77
2022/03/03 11:23:38;;;;;;;21.90;13.98;;;10.80;91.80;;;;;;5025111;28;20408;-78
2022/03/03 11:26:04;;;;;;;19.98;13.68;;;10.90;92.50;;;;;;5037259;28;20067;-78
2022/03/03 11:28:35;;;;;;;24.27;13.45;;;10.90;93.90;;;;;;5029500;28;20022;-78
2022/03/03 11:31:30;;;;;;;22.40;13.45;;;10.90;91.80;;;;;;5034613;28;20473;-81
2022/03/03 11:34:33;;;;;;;20.45;13.45;;;11.00;91.80;;;;;;5023015;28;20033;-81
2022/03/03 11:37:10;;;;;;;22.92;13.05;;;11.20;90.80;;;;;;5027770;28;20034;-81
2022/03/03 11:39:48;;;;;;;20.80;13.07;;;11.20;92.00;;;;;;5033220;28;20096;-78
2022/03/03 11:42:29;;;;;;;20.23;13.75;;;11.40;94.50;;;;;;5026439;28;20489;-77
2022/03/03 11:45:18;;;;;;;23.95;13.27;;;11.60;90.90;;;;;;5031228;28;20099;-77
2022/03/03 11:47:46;;;;;;;22.05;13.68;;;11.60;91.70;;;;;;5029741;28;20025;-79
2022/03/03 11:50:19;;;;;;;22.70;14.95;;;11.70;93.30;;;;;;5031082;28;20071;-79
2022/03/03 11:52:56;;;;;;;20.15;13.73;;;11.90;91.90;;;;;;5032485;28;20142;-79
2022/03/03 11:55:38;;;;;;;23.20;15.35;;;12.00;94.60;;;;;;5029559;28;20025;-79
2022/03/03 11:58:16;;;;;;;23.57;14.17;;;12.00;93.10;;;;;;5030567;28;20482;-78
2022/03/03 12:01:05;;;;;;;21.58;14.50;;;12.20;95.80;;;;;;5035187;28;20264;-81
2022/03/03 12:03:33;;;;;;;25.35;15.15;;;12.00;94.10;;;;;;5025985;28;20518;-80
2022/03/03 12:06:01;;;;;;;21.48;14.05;;;12.10;92.30;;;;;;5042387;28;20037;-77
2022/03/03 12:08:29;;;;;;;22.98;15.88;;;12.20;91.40;;;;;;5019133;28;20037;-79
2022/03/03 12:11:01;;;;;;;24.63;14.77;;;12.20;91.70;;;;;;5036453;28;20079;-80
2022/03/03 12:13:40;;;;;;;22.67;15.10;;;12.20;90.90;;;;;;5022883;28;20048;-80
2022/03/03 12:16:14;;;;;;;23.77;15.27;;;12.30;91.70;;;;;;5024279;28;20021;-81
2022/03/03 12:18:42;;;;;;;21.33;14.75;;;12.40;90.70;;;;;;5040456;28;20029;-81
2022/03/03 12:21:33;;;;;;;18.98;14.23;;;12.40;88.60;;;;;;5033595;28;20025;-79
2022/03/03 12:24:14;;;;;;;20.23;14.40;;;12.50;92.80;;;;;;5022705;28;20037;-78
2022/03/03 12:26:55;;;;;;;22.80;13.68;;;12.50;94.10;;;;;;5030180;28;20118;-82
2022/03/03 12:29:49;;;;;;;18.33;14.05;;;12.40;91.70;;;;;;5037266;28;20108;-80
2022/03/03 12:32:32;;;;;;;18.73;14.32;;;12.50;90.10;;;;;;5035107;28;20162;-79
2022/03/03 12:35:21;;;;;;;18.67;12.73;;;12.70;90.70;;;;;;5031908;28;20041;-80
2022/03/03 12:37:47;;;;;;;20.50;14.02;;;12.60;91.90;;;;;;5024869;28;20079;-80
2022/03/03 12:40:16;;;;;;;20.88;15.00;;;12.50;89.30;;;;;;5030333;28;20026;-79
2022/03/03 12:42:47;;;;;;;19.67;13.50;;;12.50;88.20;;;;;;5022472;28;20029;-80